Latest Weather Observations for Cressy

IDT60801

Issued at 5:02 pm EDT Wednesday 22 February 2017 (issued every 30 minutes, with the page automatically refreshed every 10 minutes)

About weather observations | Map of weather stations | Latest weather observations for TAS | Other Formats
Station Details ID: 091306 Name: CRESSY RESEARCH STATION Lat: -41.73 Lon: 147.08 Height: 148.0 m
Data from the previous 72 hours. | See also: Recent months at Cressy
Date/Time
EDT
Temp
°C
App
Temp
°C
Dew
Point
°C
Rel
Hum
%
Delta-T
°C
Wind Press
QNH
hPa
Press
MSL
hPa
Rain since
9am
mm
Dir  Spd
km/h
Gust
km/h
Spd
kts
Gust
kts
22/05:00pm 23.3 17.8 10.4 44 7.1 NNW 30 39 16 21 - - 0.0
22/04:30pm 24.3 18.5 9.5 39 8.1 NNW 30 39 16 21 - - 0.0
22/04:00pm 24.2 18.7 9.0 38 8.3 NNW 28 39 15 21 - - 0.0
22/03:30pm 24.2 19.5 9.4 39 8.1 NNW 24 35 13 19 - - 0.0
22/03:00pm 24.0 18.1 7.6 35 8.7 NNW 28 37 15 20 - - 0.0
22/02:30pm 22.6 17.3 9.7 44 7.0 NW 28 35 15 19 - - 0.0
22/02:00pm 22.5 18.1 10.3 46 6.7 NNW 24 35 13 19 - - 0.0
22/01:30pm 22.2 16.6 10.0 46 6.7 NNW 30 43 16 23 - - 0.0
22/01:00pm 22.2 16.9 11.3 50 6.1 NNW 30 46 16 25 - - 0.0
22/12:56pm 21.5 16.2 10.0 48 6.3 NNW 28 46 15 25 - - 0.0
22/12:30pm 21.2 16.6 11.0 52 5.6 NW 26 35 14 19 - - 0.0
22/12:00pm 19.5 15.9 10.5 56 4.9 NW 20 30 11 16 - - 0.0
22/11:30am 19.4 15.8 10.4 56 4.9 NNW 20 28 11 15 - - 0.0
22/11:00am 18.8 15.1 10.1 57 4.7 NW 20 33 11 18 - - 0.0
22/10:30am 17.4 11.9 9.3 59 4.3 NNW 28 41 15 22 - - 0.0
22/10:00am 16.9 11.9 9.6 62 3.8 NNW 26 33 14 18 - - 0.0
22/09:30am 15.9 11.8 10.0 68 3.1 NNW 22 33 12 18 - - 0.0
22/09:00am 15.4 12.0 11.4 77 2.2 NNW 20 26 11 14 - - 0.0
22/08:30am 14.1 11.6 11.1 82 1.6 NNW 15 19 8 10 - - 0.0
22/08:00am 12.9 10.5 11.3 90 0.9 NNW 15 19 8 10 - - 0.0
22/07:30am 10.7 9.1 10.2 97 0.3 NNW 9 13 5 7 - - 0.0
22/07:00am 9.5 7.6 8.9 96 0.3 NNW 9 11 5 6 - - 0.0
22/06:30am 9.5 8.8 8.6 94 0.4 NE 2 7 1 4 - - 0.0
22/06:00am 9.7 8.3 8.9 95 0.4 NW 6 7 3 4 - - 0.0
22/05:30am 9.5 8.0 8.6 94 0.4 N 6 9 3 5 - - 0.0
22/05:00am 9.9 8.5 8.8 93 0.5 N 6 6 3 3 - - 0.0
22/04:30am 10.2 8.9 9.1 93 0.5 NNE 6 7 3 4 - - 0.0
22/04:00am 10.5 9.3 9.7 95 0.4 NE 6 9 3 5 - - 0.0
22/03:30am 9.8 8.9 9.3 97 0.2 S 4 7 2 4 - - 0.0
22/03:00am 8.4 7.8 7.6 95 0.4 CALM 0 0 0 0 - - 0.0
22/02:30am 8.5 7.3 7.9 96 0.3 WNW 4 7 2 4 - - 0.0
22/02:00am 8.2 7.6 7.6 96 0.3 CALM 0 0 0 0 - - 0.0
22/01:30am 8.5 8.0 7.7 95 0.4 CALM 0 0 0 0 - - 0.0
22/01:00am 9.1 8.6 7.9 92 0.6 CALM 0 0 0 0 - - 0.0
22/12:30am 9.8 9.4 8.2 90 0.8 CALM 0 0 0 0 - - 0.0
22/12:00am 10.4 10.1 8.8 90 0.8 CALM 0 0 0 0 - - 0.0
 
Date/Time
EDT
Temp
°C
App
Temp
°C
Dew
Point
°C
Rel
Hum
%
Delta-T
°C
Wind Press
QNH
hPa
Press
MSL
hPa
Rain since
9am
mm
Dir  Spd
km/h
Gust
km/h
Spd
kts
Gust
kts
21/11:30pm 11.2 10.9 8.8 85 1.2 CALM 0 0 0 0 - - 0.0
21/11:00pm 12.8 11.8 10.3 85 1.3 SW 6 9 3 5 - - 0.0
21/10:30pm 13.3 11.2 9.7 79 1.9 NNE 11 15 6 8 - - 0.0
21/10:00pm 14.2 11.8 10.2 77 2.1 NNE 13 19 7 10 - - 0.0
21/09:30pm 14.6 12.7 9.2 70 2.8 NE 9 13 5 7 - - 0.0
21/09:00pm 15.9 12.9 9.3 65 3.4 N 15 20 8 11 - - 0.0
21/08:30pm 16.9 13.7 8.3 57 4.4 NNW 15 22 8 12 - - 0.0
21/08:00pm 18.2 14.8 9.0 55 4.8 NNW 17 20 9 11 - - 0.0
21/07:30pm 20.0 16.3 8.0 46 6.2 NNW 17 24 9 13 - - 0.0
21/07:00pm 21.1 16.8 7.7 42 7.0 NNW 20 26 11 14 - - 0.0
21/06:30pm 21.9 17.5 6.6 37 7.8 NNW 19 24 10 13 - - 0.0
21/06:00pm 22.2 17.7 6.0 35 8.2 NNW 19 28 10 15 - - 0.0
21/05:30pm 23.0 19.3 6.3 34 8.6 N 15 26 8 14 - - 0.0
21/05:00pm 22.9 20.2 2.9 27 9.6 SSE 6 9 3 5 - - 0.0
21/04:30pm 22.8 19.5 2.3 26 9.8 NNW 9 15 5 8 - - 0.0
21/04:00pm 22.8 17.9 4.3 30 9.1 N 19 26 10 14 - - 0.0
21/03:30pm 22.2 19.0 3.3 29 9.1 NE 9 20 5 11 - - 0.0
21/03:00pm 22.2 18.3 3.3 29 9.1 NNW 13 24 7 13 - - 0.0
21/02:30pm 21.8 17.8 3.0 29 9.0 NW 13 20 7 11 - - 0.0
21/02:00pm 20.6 17.0 2.9 31 8.4 N 11 20 6 11 - - 0.0
21/01:30pm 20.9 17.0 3.2 31 8.5 N 13 20 7 11 - - 0.0
21/01:00pm 20.3 16.8 3.5 33 8.0 NW 11 17 6 9 - - 0.0
21/12:30pm 19.0 15.4 3.2 35 7.4 NNW 11 19 6 10 - - 0.0
21/12:00pm 18.2 15.6 3.3 37 7.0 NNE 6 15 3 8 - - 0.0
21/11:30am 17.8 14.6 5.1 43 6.2 NNW 11 19 6 10 - - 0.0
21/11:00am 16.3 13.0 4.4 45 5.6 N 11 19 6 10 - - 0.0
21/10:30am 15.5 12.2 4.6 48 5.1 NNE 11 15 6 8 - - 0.0
21/10:00am 14.5 12.4 6.6 59 3.9 NE 7 13 4 7 - - 0.0
21/09:30am 13.2 11.9 9.1 76 2.1 ENE 6 9 3 5 - - 0.0
21/09:00am 10.8 10.5 10.2 96 0.3 NNW 2 9 1 5 - - 0.6
21/08:30am 8.1 7.6 8.0 99 0.0 CALM 0 0 0 0 - - 0.6
21/08:00am 6.5 4.5 6.2 98 0.1 W 6 9 3 5 - - 0.6
21/07:30am 4.2 1.5 3.9 98 0.1 E 7 9 4 5 - - 0.6
21/07:00am 2.4 0.7 2.0 97 0.2 CALM 0 0 0 0 - - 0.6
21/06:30am 2.3 0.6 1.9 97 0.2 CALM 0 0 0 0 - - 0.6
21/06:00am 3.8 2.4 3.5 98 0.1 CALM 0 6 0 3 - - 0.6
21/05:30am 4.7 3.5 4.4 98 0.1 CALM 0 0 0 0 - - 0.6
21/05:00am 5.0 3.4 4.6 97 0.2 WSW 2 7 1 4 - - 0.6
21/04:30am 5.3 3.8 5.0 98 0.1 SE 2 7 1 4 - - 0.6
21/04:00am 5.5 3.3 5.1 97 0.2 SSW 6 13 3 7 - - 0.6
21/03:30am 4.6 1.6 4.0 96 0.3 S 9 11 5 6 - - 0.6
21/03:00am 6.5 5.6 6.1 97 0.2 CALM 0 0 0 0 - - 0.6
21/02:30am 6.4 4.3 5.7 95 0.3 SSE 6 7 3 4 - - 0.6
21/02:00am 6.2 3.9 5.0 92 0.5 WSW 6 7 3 4 - - 0.6
21/01:30am 7.2 5.0 5.3 88 0.8 NNW 6 9 3 5 - - 0.6
21/01:00am 8.8 8.2 7.6 92 0.6 CALM 0 6 0 3 - - 0.6
21/12:30am 9.6 7.9 7.7 88 0.9 WNW 6 7 3 4 - - 0.6
21/12:00am 11.2 9.2 8.8 85 1.2 N 9 13 5 7 - - 0.6
 
Date/Time
EDT
Temp
°C
App
Temp
°C
Dew
Point
°C
Rel
Hum
%
Delta-T
°C
Wind Press
QNH
hPa
Press
MSL
hPa
Rain since
9am
mm
Dir  Spd
km/h
Gust
km/h
Spd
kts
Gust
kts
20/11:30pm 11.8 8.4 9.0 83 1.4 ESE 17 20 9 11 - - 0.6
20/11:00pm 13.5 10.6 9.6 77 2.0 ESE 15 19 8 10 - - 0.6
20/10:30pm 13.4 10.8 9.5 77 2.0 ESE 13 17 7 9 - - 0.6
20/10:00pm 14.3 11.6 8.9 70 2.8 E 13 19 7 10 - - 0.6
20/09:30pm 14.4 13.0 9.0 70 2.8 ENE 6 9 3 5 - - 0.6
20/09:00pm 14.6 13.1 9.0 69 2.9 SSE 7 13 4 7 - - 0.6
20/08:30pm 14.8 13.7 8.5 66 3.2 N 4 9 2 5 - - 0.6
20/08:00pm 15.8 14.4 8.8 63 3.6 NE 6 11 3 6 - - 0.6
20/07:30pm 16.2 14.7 8.4 60 4.0 NE 6 11 3 6 - - 0.6
20/07:00pm 15.3 13.9 9.0 66 3.2 NE 6 11 3 6 - - 0.6
20/06:30pm 14.2 12.9 10.0 76 2.2 SW 7 11 4 6 - - 0.6
20/06:00pm 14.3 9.6 9.1 71 2.7 SE 24 33 13 18 - - 0.2
20/05:30pm 17.9 13.9 4.8 42 6.3 SSE 15 20 8 11 - - 0.0
20/05:00pm 19.0 15.0 4.7 39 6.9 S 15 20 8 11 - - 0.0
20/04:30pm 18.6 13.6 4.4 39 6.8 SSW 20 28 11 15 - - 0.0
20/04:00pm 18.5 15.2 4.7 40 6.7 SSE 11 20 6 11 - - 0.0
20/03:30pm 18.3 14.0 5.2 42 6.4 SSE 17 24 9 13 - - 0.0
20/03:00pm 18.0 13.6 4.9 42 6.3 S 17 24 9 13 - - 0.0
20/02:30pm 17.9 12.9 4.8 42 6.3 SSE 20 33 11 18 - - 0.0
20/02:00pm 17.9 13.3 5.5 44 6.1 SSE 19 26 10 14 - - 0.0
20/01:30pm 17.6 13.2 4.9 43 6.1 SE 17 24 9 13 - - 0.0
20/01:00pm 17.2 13.1 4.5 43 6.1 SSE 15 22 8 12 - - 0.0
20/12:30pm 16.8 11.8 4.8 45 5.7 S 20 32 11 17 - - 0.0
20/12:00pm 16.8 12.1 5.1 46 5.6 S 19 30 10 16 - - 0.0
20/11:30am 17.2 12.4 5.8 47 5.6 SSW 20 30 11 16 - - 0.0
20/11:00am 15.7 10.9 5.6 51 4.9 SSE 20 32 11 17 - - 0.0
20/10:30am 15.4 13.1 5.9 53 4.6 SSE 7 15 4 8 - - 0.0
20/10:00am 14.5 12.6 6.6 59 3.9 SSW 6 15 3 8 - - 0.0
20/09:30am 11.9 10.0 6.6 70 2.5 N 6 11 3 6 - - 0.0
20/09:00am 10.6 8.5 6.7 77 1.9 NNW 7 11 4 6 - - 0.0
20/08:30am 9.6 8.8 6.5 81 1.5 CALM 0 0 0 0 - - 0.0
20/08:00am 7.9 5.8 5.9 87 0.9 NNW 6 9 3 5 - - 0.0
20/07:30am 7.5 5.4 6.0 90 0.7 E 6 7 3 4 - - 0.0
20/07:00am 6.5 4.2 5.0 90 0.7 SSE 6 9 3 5 - - 0.0
20/06:30am 5.5 2.9 4.3 92 0.5 SE 7 9 4 5 - - 0.0
20/06:00am 5.6 3.2 4.2 91 0.6 S 6 9 3 5 - - 0.0
20/05:30am 6.1 3.7 5.1 93 0.4 SSW 7 11 4 6 - - 0.0
20/05:00am 5.0 2.6 4.3 95 0.3 SE 6 7 3 4 - - 0.0
20/04:30am 4.7 2.1 4.0 95 0.3 SW 7 9 4 5 - - 0.0
20/04:00am 4.3 2.5 3.4 94 0.4 NE 2 6 1 3 - - 0.0
20/03:30am 4.1 1.9 3.2 94 0.4 SSW 4 7 2 4 - - 0.0
20/03:00am 4.8 1.8 4.1 95 0.3 SSW 9 11 5 6 - - 0.0
20/02:30am 3.7 0.9 3.1 96 0.2 SSE 7 9 4 5 - - 0.0
20/02:00am 3.0 0.6 2.3 95 0.3 SSE 4 6 2 3 - - 0.0
20/01:30am 2.8 -0.6 1.8 93 0.4 S 9 13 5 7 - - 0.0
20/01:00am 3.7 1.4 2.7 93 0.4 SSE 4 9 2 5 - - 0.0
20/12:30am 4.6 1.1 3.6 93 0.4 SSW 11 15 6 8 - - 0.0
20/12:00am 4.0 0.8 3.0 93 0.4 S 9 11 5 6 - - 0.0
 
Date/Time
EDT
Temp
°C
App
Temp
°C
Dew
Point
°C
Rel
Hum
%
Delta-T
°C
Wind Press
QNH
hPa
Press
MSL
hPa
Rain since
9am
mm
Dir  Spd
km/h
Gust
km/h
Spd
kts
Gust
kts
19/11:30pm 4.9 3.5 3.6 91 0.5 CALM 0 0 0 0 - - 0.0
19/11:00pm 5.7 4.2 3.2 84 1.0 CALM 0 0 0 0 - - 0.0
19/10:30pm 6.3 3.8 3.6 83 1.1 NNE 6 7 3 4 - - 0.0
19/10:00pm 7.6 5.4 5.1 84 1.1 SE 6 7 3 4 - - 0.0
19/09:30pm 8.7 6.8 4.7 76 1.8 WNW 4 7 2 4 - - 0.0
19/09:00pm 9.6 8.1 5.0 73 2.1 NNW 2 6 1 3 - - 0.0
19/08:30pm 11.1 8.4 5.4 68 2.6 WNW 9 11 5 6 - - 0.0
19/08:00pm 12.6 9.3 4.8 59 3.6 NW 11 15 6 8 - - 0.0
19/07:30pm 14.2 10.7 5.3 55 4.2 NW 13 17 7 9 - - 0.0
19/07:00pm 14.8 10.0 4.5 50 4.8 NNW 19 26 10 14 - - 0.0
19/06:30pm 14.9 10.5 4.9 51 4.7 NNW 17 22 9 12 - - 0.0
19/06:00pm 15.5 10.7 4.6 48 5.1 NW 19 24 10 13 - - 0.0
19/05:30pm 15.3 10.2 4.1 47 5.2 WNW 20 30 11 16 - - 0.0

Other Formats:

Comma delimited format used in spreadsheet applications
http://www.bom.gov.au/fwo/IDT60801/IDT60801.95969.axf

JavaScript Object Notation format (JSON) in row-major order
http://www.bom.gov.au/fwo/IDT60801/IDT60801.95969.json